Sulphur Genesis — 9HA2898 — position and weather

sailwx.info

Track history (hours):
 
Tides and Currents Weather Stations Pressure Air Temp Water Temp Dewpoint Dewpoint Depression Visibility Wind Speed Wind Dir Waves Ship Positions

Sulphur Genesis

Last reported at 2017-Nov-24 10:48 UTC. Time now 2017-Nov-24 11:19 UTC.
Position N 55°48' E 016°49'.

Length 95 m; draft 5.2 m.

Type: Tanker. MMSI: 256656000.

Date/timePositionNaut miles runAvg speedWind from/ knotsBaromVisibWave heightAir tempDewpointWater temp
2017-Nov-24 10:48N 55°48' E 016°49'412.6
2017-Nov-24 10:30N 55°47' E 016°43'612.6
2017-Nov-24 10:00N 55°46' E 016°32'612.7
2017-Nov-24 09:30N 55°44' E 016°21'612.8
2017-Nov-24 09:00N 55°43' E 016°10'612.7
2017-Nov-24 08:30N 55°41' E 015°59'612.7
2017-Nov-24 08:00N 55°40' E 015°48'612.8
2017-Nov-24 07:30N 55°38' E 015°37'612.9
2017-Nov-24 07:00N 55°36' E 015°26'613.0
2017-Nov-24 06:30N 55°34' E 015°16'812.8
2017-Nov-24 05:54N 55°30' E 015°03'513.0
2017-Nov-24 05:29N 55°28' E 014°55'612.8
2017-Nov-24 04:59N 55°25' E 014°44'612.4
2017-Nov-24 04:30N 55°22' E 014°36'612.3
2017-Nov-24 04:00N 55°17' E 014°30'612.5
2017-Nov-24 03:30N 55°12' E 014°23'811.6
2017-Nov-24 02:48N 55°10' E 014°09'412.8
2017-Nov-24 02:29N 55°10' E 014°02'3112.7
2017-Nov-24 00:03N 55°11' E 013°08'113.0
2017-Nov-23 23:56N 55°12' E 013°06'612.8
2017-Nov-23 23:30N 55°14' E 012°57'713.2
2017-Nov-23 23:00N 55°16' E 012°46'611.6
2017-Nov-23 22:30N 55°20' E 012°38'611.8
2017-Nov-23 22:00N 55°25' E 012°39'611.5
2017-Nov-23 21:30N 55°30' E 012°44'612.0
2017-Nov-23 21:00N 55°35' E 012°50'611.3
2017-Nov-23 20:31N 55°40' E 012°57'612.4
2017-Nov-23 20:00N 55°45' E 012°50'612.4
2017-Nov-23 19:30N 55°50' E 012°44'510.7
2017-Nov-23 19:00N 55°55' E 012°44'510.0
2017-Nov-23 18:30N 56°00' E 012°43'1 1.1
2017-Nov-23 18:00N 56°01' E 012°43'0 0.0
2017-Nov-23 17:30N 56°01' E 012°43'0 0.0
2017-Nov-23 17:00N 56°01' E 012°43'0 0.0
2017-Nov-23 16:30N 56°01' E 012°43'0 0.0
2017-Nov-23 16:00N 56°01' E 012°43'0 0.0
2017-Nov-23 15:30N 56°01' E 012°43'0 0.0
2017-Nov-23 15:00N 56°01' E 012°43'0 0.0
2017-Nov-23 14:30N 56°01' E 012°43'0 0.0
2017-Nov-23 14:00N 56°01' E 012°43'0 0.0
2017-Nov-23 13:30N 56°01' E 012°43'0 0.0
2017-Nov-23 13:00N 56°01' E 012°43'0 0.0
2017-Nov-23 12:30N 56°01' E 012°43'0 0.0
2017-Nov-23 12:00N 56°01' E 012°43'0 0.0
2017-Nov-23 11:30N 56°01' E 012°43'0 0.0
2017-Nov-23 11:00N 56°01' E 012°43'0 0.0
2017-Nov-23 10:30N 56°01' E 012°43'0 0.0
2017-Nov-23 10:00N 56°01' E 012°43'0 0.0
2017-Nov-23 09:30N 56°01' E 012°43'0 0.0
2017-Nov-23 09:00N 56°01' E 012°43'0 0.0
2017-Nov-23 08:30N 56°01' E 012°43'0 0.4
2017-Nov-23 08:01N 56°00' E 012°43'1 2.8
2017-Nov-23 07:30N 55°59' E 012°41'5 9.7
2017-Nov-23 07:00N 56°04' E 012°38'4 7.4
2017-Nov-23 06:30N 56°07' E 012°33'3 6.1
2017-Nov-23 06:00N 56°09' E 012°29'3 5.9
2017-Nov-23 05:30N 56°12' E 012°29'3 4.6
2017-Nov-23 04:56N 56°15' E 012°29'0 0.0
2017-Nov-23 04:29N 56°15' E 012°29'0 0.0
2017-Nov-23 03:59N 56°15' E 012°29'0 0.0
2017-Nov-23 03:29N 56°15' E 012°29'0 0.0
2017-Nov-23 02:53N 56°15' E 012°29'0 0.0
2017-Nov-23 02:26N 56°15' E 012°29'0 0.0
2017-Nov-23 01:56N 56°15' E 012°29'0 0.0
2017-Nov-23 01:29N 56°15' E 012°29'0 0.0
2017-Nov-23 00:56N 56°15' E 012°29'0 0.0
2017-Nov-23 00:29N 56°15' E 012°29'0 0.0
2017-Nov-22 23:59N 56°15' E 012°29'0 0.0
2017-Nov-22 23:26N 56°15' E 012°29'0 0.0
2017-Nov-22 22:56N 56°15' E 012°29'0 0.0
2017-Nov-22 22:29N 56°15' E 012°29'0 0.0
2017-Nov-22 21:50N 56°15' E 012°29'0 0.0
2017-Nov-22 21:26N 56°15' E 012°29'0 0.0
2017-Nov-22 20:59N 56°15' E 012°29'0 0.0
2017-Nov-22 20:20N 56°14' E 012°29'0 0.0
2017-Nov-22 19:56N 56°15' E 012°29'0 0.0
2017-Nov-22 19:20N 56°15' E 012°29'  
2017-Nov-20 00:30N 56°00' E 012°43'2 3.8
2017-Nov-20 00:00N 55°59' E 012°42'510.8
2017-Nov-19 23:30N 56°04' E 012°38'611.2
2017-Nov-19 23:00N 56°07' E 012°30'510.2
2017-Nov-19 22:30N 56°10' E 012°23'611.1
2017-Nov-19 22:00N 56°13' E 012°15'6211.6
2017-Nov-19 16:39N 57°11' E 011°34'211.6
2017-Nov-19 16:28N 57°13' E 011°33'611.7
2017-Nov-19 15:58N 57°19' E 011°30'511.1
2017-Nov-19 15:30N 57°24' E 011°26'511.1
2017-Nov-19 15:00N 57°29' E 011°23'611.4
2017-Nov-19 14:30N 57°35' E 011°22'611.2
2017-Nov-19 14:01N 57°40' E 011°20'611.1
2017-Nov-19 13:31N 57°46' E 011°19'611.2
2017-Nov-19 13:00N 57°51' E 011°17'611.2
2017-Nov-19 12:30N 57°57' E 011°16'611.2
2017-Nov-19 12:00N 58°02' E 011°15'611.3
2017-Nov-19 11:30N 58°08' E 011°13'610.9
2017-Nov-19 10:58N 58°14' E 011°11'510.2
2017-Nov-19 10:30N 58°17' E 011°18'610.7
2017-Nov-19 09:58N 58°21' E 011°25'1 0.0
2017-Nov-18 15:09N 58°21' E 011°27'1 3.2
2017-Nov-18 14:59N 58°21' E 011°26'4 8.8
2017-Nov-18 14:30N 58°18' E 011°20'611.5
2017-Nov-18 13:58N 58°13' E 011°13'612.1
2017-Nov-18 13:30N 58°08' E 011°14'510.9
2017-Nov-18 13:01N 58°02' E 011°15'4 8.5
2017-Nov-18 12:30N 57°58' E 011°17'4 8.4
2017-Nov-18 12:00N 57°54' E 011°18'4 7.7
2017-Nov-18 11:30N 57°50' E 011°19'4 7.3
2017-Nov-18 11:00N 57°47' E 011°20'4 7.3
2017-Nov-18 10:30N 57°43' E 011°22'4 7.9
2017-Nov-18 10:00N 57°39' E 011°23'4 8.0
2017-Nov-18 09:30N 57°35' E 011°24'611.4
2017-Nov-18 09:00N 57°30' E 011°26'612.1
2017-Nov-18 08:30N 57°24' E 011°30'612.2
2017-Nov-18 08:00N 57°18' E 011°33'612.1
2017-Nov-18 07:30N 57°12' E 011°37'6711.2
2017-Nov-18 01:30N 56°11' E 012°25'611.8
2017-Nov-18 01:00N 56°07' E 012°33'611.6
2017-Nov-18 00:30N 56°03' E 012°40'3 4.8
2017-Nov-17 23:59N 56°01' E 012°43'0 0.0
2017-Nov-17 23:29N 56°01' E 012°43'0 0.0
2017-Nov-17 22:59N 56°01' E 012°43'0 0.0
2017-Nov-17 22:26N 56°01' E 012°43'0 0.0
2017-Nov-17 21:56N 56°01' E 012°43'0 0.0
2017-Nov-17 21:29N 56°01' E 012°43'0 0.0
2017-Nov-17 20:59N 56°01' E 012°43'0 0.0
2017-Nov-17 20:29N 56°01' E 012°43'0 0.0
2017-Nov-17 19:59N 56°01' E 012°43'0 0.0
2017-Nov-17 19:29N 56°01' E 012°43'0 0.0
2017-Nov-17 18:59N 56°01' E 012°43'0 0.0
2017-Nov-17 18:29N 56°01' E 012°43'0 0.0
2017-Nov-17 17:59N 56°01' E 012°43'0 0.0
2017-Nov-17 17:29N 56°01' E 012°43'0 0.0
2017-Nov-17 16:59N 56°01' E 012°43'0 0.0
2017-Nov-17 16:29N 56°01' E 012°43'0 0.0
2017-Nov-17 15:59N 56°01' E 012°43'0 0.0
2017-Nov-17 15:29N 56°01' E 012°43'0 0.0
2017-Nov-17 14:59N 56°01' E 012°43'0 0.0
2017-Nov-17 14:29N 56°01' E 012°43'0 0.0
2017-Nov-17 13:59N 56°01' E 012°43'0 0.0
2017-Nov-17 13:29N 56°01' E 012°43'0 0.0
2017-Nov-17 12:59N 56°01' E 012°43'0 0.0
2017-Nov-17 12:29N 56°01' E 012°43'0 0.9
2017-Nov-17 12:00N 56°00' E 012°43'2 4.2
2017-Nov-17 11:29N 55°58' E 012°44'0 0.1
2017-Nov-17 10:59N 55°58' E 012°44'0 0.1
2017-Nov-17 10:29N 55°58' E 012°44'0 0.1
2017-Nov-17 09:59N 55°58' E 012°44'0 0.1
2017-Nov-17 09:29N 55°58' E 012°44'0 0.1
2017-Nov-17 08:59N 55°58' E 012°44'0 0.0
2017-Nov-17 08:29N 55°58' E 012°44'0 0.0
2017-Nov-17 07:59N 55°58' E 012°44'0 0.0
2017-Nov-17 07:29N 55°58' E 012°44'0 0.0
2017-Nov-17 06:59N 55°58' E 012°44'0 0.0
2017-Nov-17 06:29N 55°58' E 012°44'0 0.0
2017-Nov-17 05:59N 55°58' E 012°44'0 0.0
2017-Nov-17 05:29N 55°58' E 012°44'0 0.0
2017-Nov-17 04:59N 55°58' E 012°44'0 0.0
2017-Nov-17 04:29N 55°58' E 012°44'0 0.0
2017-Nov-17 03:59N 55°58' E 012°44'0 0.0
2017-Nov-17 03:29N 55°58' E 012°44'0 0.1
2017-Nov-17 02:59N 55°58' E 012°44'0 0.0
2017-Nov-17 02:29N 55°58' E 012°44'0 0.1
2017-Nov-17 01:59N 55°58' E 012°44'0 0.1
2017-Nov-17 01:29N 55°58' E 012°44'0 0.1
2017-Nov-17 00:59N 55°58' E 012°43'0 0.0
2017-Nov-17 00:29N 55°58' E 012°43'0 0.0
2017-Nov-16 23:59N 55°58' E 012°43'0 0.0
2017-Nov-16 23:29N 55°58' E 012°43'0 0.0
2017-Nov-16 22:59N 55°58' E 012°43'0 0.0
2017-Nov-16 22:29N 55°58' E 012°43'0 0.0
2017-Nov-16 21:59N 55°58' E 012°43'0 0.0
2017-Nov-16 21:29N 55°58' E 012°43'0 0.0
2017-Nov-16 20:59N 55°58' E 012°43'0 0.0
2017-Nov-16 20:29N 55°58' E 012°43'0 0.0
2017-Nov-16 19:59N 55°58' E 012°43'0 0.0
2017-Nov-16 19:29N 55°58' E 012°43'0 0.0
2017-Nov-16 18:59N 55°58' E 012°43'0 0.0
2017-Nov-16 18:29N 55°58' E 012°43'1 1.7
2017-Nov-16 18:01N 55°57' E 012°44'611.0
2017-Nov-16 17:30N 55°52' E 012°44'612.5
2017-Nov-16 17:00N 55°46' E 012°49'612.6
2017-Nov-16 16:31N 55°41' E 012°55'4 8.5
2017-Nov-16 16:01N 55°37' E 012°53'5 9.1
2017-Nov-16 15:30N 55°34' E 012°48'4 8.6
2017-Nov-16 15:01N 55°30' E 012°43'510.7
2017-Nov-16 14:30N 55°25' E 012°41'612.3
2017-Nov-16 14:01N 55°19' E 012°40'611.5
2017-Nov-16 13:31N 55°17' E 012°49'611.8
2017-Nov-16 13:00N 55°14' E 012°59'611.1
2017-Nov-16 12:29N 55°13' E 013°08'2711.7
2017-Nov-16 10:09N 55°13' E 013°56'311.6
2017-Nov-16 09:51N 55°13' E 014°02'411.6
2017-Nov-16 09:28N 55°13' E 014°10'610.4
2017-Nov-16 08:53N 55°15' E 014°20'411.6
2017-Nov-16 08:30N 55°19' E 014°25'611.9
2017-Nov-16 08:00N 55°23' E 014°31'611.6
2017-Nov-16 07:30N 55°27' E 014°39'611.9
2017-Nov-16 07:00N 55°30' E 014°48'611.7
2017-Nov-16 06:27N 55°33' E 014°58'611.8
2017-Nov-16 05:55N 55°36' E 015°08'611.6
2017-Nov-16 05:24N 55°38' E 015°18'511.7
2017-Nov-16 05:01N 55°40' E 015°25'611.8
2017-Nov-16 04:31N 55°41' E 015°36'611.9
2017-Nov-16 04:01N 55°43' E 015°46'611.9
2017-Nov-16 03:31N 55°44' E 015°56'611.8
2017-Nov-16 03:01N 55°45' E 016°06'611.6
2017-Nov-16 02:31N 55°47' E 016°16'611.6
2017-Nov-16 02:01N 55°48' E 016°26'611.6
2017-Nov-16 01:31N 55°50' E 016°36'31310.4
2017-Nov-14 19:29N 59°38' E 023°18'511.5
2017-Nov-14 19:00N 59°39' E 023°28'611.4
2017-Nov-14 18:30N 59°41' E 023°39'611.4
2017-Nov-14 17:59N 59°42' E 023°50'1011.3
2017-Nov-14 17:03N 59°45' E 024°10'111.3
2017-Nov-14 16:56N 59°45' E 024°13'511.2
2017-Nov-14 16:30N 59°47' E 024°22'611.2
2017-Nov-14 16:00N 59°48' E 024°33'611.1
2017-Nov-14 15:30N 59°49' E 024°44'611.1
2017-Nov-14 15:00N 59°50' E 024°54'  
Track history (hours):
 
Tides and Currents Weather Stations Pressure Air Temp Water Temp Dewpoint Dewpoint Depression Visibility Wind Speed Wind Dir Waves Ship Positions

Sulphur Genesis

Last reported at 2017-Nov-24 10:48 UTC. Time now 2017-Nov-24 11:19 UTC.
Position N 55°48' E 016°49'.

Length 95 m; draft 5.2 m.

Type: Tanker. MMSI: 256656000.

Date/timePositionNaut miles runAvg speedWind from/ knotsBaromVisibWave heightAir tempDewpointWater temp
2017-Nov-24 10:48N 55°48' E 016°49'412.6
2017-Nov-24 10:30N 55°47' E 016°43'612.6
2017-Nov-24 10:00N 55°46' E 016°32'612.7
2017-Nov-24 09:30N 55°44' E 016°21'612.8
2017-Nov-24 09:00N 55°43' E 016°10'612.7
2017-Nov-24 08:30N 55°41' E 015°59'612.7
2017-Nov-24 08:00N 55°40' E 015°48'612.8
2017-Nov-24 07:30N 55°38' E 015°37'612.9
2017-Nov-24 07:00N 55°36' E 015°26'613.0
2017-Nov-24 06:30N 55°34' E 015°16'812.8
2017-Nov-24 05:54N 55°30' E 015°03'513.0
2017-Nov-24 05:29N 55°28' E 014°55'612.8
2017-Nov-24 04:59N 55°25' E 014°44'612.4
2017-Nov-24 04:30N 55°22' E 014°36'612.3
2017-Nov-24 04:00N 55°17' E 014°30'612.5
2017-Nov-24 03:30N 55°12' E 014°23'811.6
2017-Nov-24 02:48N 55°10' E 014°09'412.8
2017-Nov-24 02:29N 55°10' E 014°02'3112.7
2017-Nov-24 00:03N 55°11' E 013°08'113.0
2017-Nov-23 23:56N 55°12' E 013°06'612.8
2017-Nov-23 23:30N 55°14' E 012°57'713.2
2017-Nov-23 23:00N 55°16' E 012°46'611.6
2017-Nov-23 22:30N 55°20' E 012°38'611.8
2017-Nov-23 22:00N 55°25' E 012°39'611.5
2017-Nov-23 21:30N 55°30' E 012°44'612.0
2017-Nov-23 21:00N 55°35' E 012°50'611.3
2017-Nov-23 20:31N 55°40' E 012°57'612.4
2017-Nov-23 20:00N 55°45' E 012°50'612.4
2017-Nov-23 19:30N 55°50' E 012°44'510.7
2017-Nov-23 19:00N 55°55' E 012°44'510.0
2017-Nov-23 18:30N 56°00' E 012°43'1 1.1
2017-Nov-23 18:00N 56°01' E 012°43'0 0.0
2017-Nov-23 17:30N 56°01' E 012°43'0 0.0
2017-Nov-23 17:00N 56°01' E 012°43'0 0.0
2017-Nov-23 16:30N 56°01' E 012°43'0 0.0
2017-Nov-23 16:00N 56°01' E 012°43'0 0.0
2017-Nov-23 15:30N 56°01' E 012°43'0 0.0
2017-Nov-23 15:00N 56°01' E 012°43'0 0.0
2017-Nov-23 14:30N 56°01' E 012°43'0 0.0
2017-Nov-23 14:00N 56°01' E 012°43'0 0.0
2017-Nov-23 13:30N 56°01' E 012°43'0 0.0
2017-Nov-23 13:00N 56°01' E 012°43'0 0.0
2017-Nov-23 12:30N 56°01' E 012°43'0 0.0
2017-Nov-23 12:00N 56°01' E 012°43'0 0.0
2017-Nov-23 11:30N 56°01' E 012°43'0 0.0
2017-Nov-23 11:00N 56°01' E 012°43'0 0.0
2017-Nov-23 10:30N 56°01' E 012°43'0 0.0
2017-Nov-23 10:00N 56°01' E 012°43'0 0.0
2017-Nov-23 09:30N 56°01' E 012°43'0 0.0
2017-Nov-23 09:00N 56°01' E 012°43'0 0.0
2017-Nov-23 08:30N 56°01' E 012°43'0 0.4
2017-Nov-23 08:01N 56°00' E 012°43'1 2.8
2017-Nov-23 07:30N 55°59' E 012°41'5 9.7
2017-Nov-23 07:00N 56°04' E 012°38'4 7.4
2017-Nov-23 06:30N 56°07' E 012°33'3 6.1
2017-Nov-23 06:00N 56°09' E 012°29'3 5.9
2017-Nov-23 05:30N 56°12' E 012°29'3 4.6
2017-Nov-23 04:56N 56°15' E 012°29'0 0.0
2017-Nov-23 04:29N 56°15' E 012°29'0 0.0
2017-Nov-23 03:59N 56°15' E 012°29'0 0.0
2017-Nov-23 03:29N 56°15' E 012°29'0 0.0
2017-Nov-23 02:53N 56°15' E 012°29'0 0.0
2017-Nov-23 02:26N 56°15' E 012°29'0 0.0
2017-Nov-23 01:56N 56°15' E 012°29'0 0.0
2017-Nov-23 01:29N 56°15' E 012°29'0 0.0
2017-Nov-23 00:56N 56°15' E 012°29'0 0.0
2017-Nov-23 00:29N 56°15' E 012°29'0 0.0
2017-Nov-22 23:59N 56°15' E 012°29'0 0.0
2017-Nov-22 23:26N 56°15' E 012°29'0 0.0
2017-Nov-22 22:56N 56°15' E 012°29'0 0.0
2017-Nov-22 22:29N 56°15' E 012°29'0 0.0
2017-Nov-22 21:50N 56°15' E 012°29'0 0.0
2017-Nov-22 21:26N 56°15' E 012°29'0 0.0
2017-Nov-22 20:59N 56°15' E 012°29'0 0.0
2017-Nov-22 20:20N 56°14' E 012°29'0 0.0
2017-Nov-22 19:56N 56°15' E 012°29'0 0.0
2017-Nov-22 19:20N 56°15' E 012°29'  
2017-Nov-20 00:30N 56°00' E 012°43'2 3.8
2017-Nov-20 00:00N 55°59' E 012°42'510.8
2017-Nov-19 23:30N 56°04' E 012°38'611.2
2017-Nov-19 23:00N 56°07' E 012°30'510.2
2017-Nov-19 22:30N 56°10' E 012°23'611.1
2017-Nov-19 22:00N 56°13' E 012°15'6211.6
2017-Nov-19 16:39N 57°11' E 011°34'211.6
2017-Nov-19 16:28N 57°13' E 011°33'611.7
2017-Nov-19 15:58N 57°19' E 011°30'511.1
2017-Nov-19 15:30N 57°24' E 011°26'511.1
2017-Nov-19 15:00N 57°29' E 011°23'611.4
2017-Nov-19 14:30N 57°35' E 011°22'611.2
2017-Nov-19 14:01N 57°40' E 011°20'611.1
2017-Nov-19 13:31N 57°46' E 011°19'611.2
2017-Nov-19 13:00N 57°51' E 011°17'611.2
2017-Nov-19 12:30N 57°57' E 011°16'611.2
2017-Nov-19 12:00N 58°02' E 011°15'611.3
2017-Nov-19 11:30N 58°08' E 011°13'610.9
2017-Nov-19 10:58N 58°14' E 011°11'510.2
2017-Nov-19 10:30N 58°17' E 011°18'610.7
2017-Nov-19 09:58N 58°21' E 011°25'1 0.0
2017-Nov-18 15:09N 58°21' E 011°27'1 3.2
2017-Nov-18 14:59N 58°21' E 011°26'4 8.8
2017-Nov-18 14:30N 58°18' E 011°20'611.5
2017-Nov-18 13:58N 58°13' E 011°13'612.1
2017-Nov-18 13:30N 58°08' E 011°14'510.9
2017-Nov-18 13:01N 58°02' E 011°15'4 8.5
2017-Nov-18 12:30N 57°58' E 011°17'4 8.4
2017-Nov-18 12:00N 57°54' E 011°18'4 7.7
2017-Nov-18 11:30N 57°50' E 011°19'4 7.3
2017-Nov-18 11:00N 57°47' E 011°20'4 7.3
2017-Nov-18 10:30N 57°43' E 011°22'4 7.9
2017-Nov-18 10:00N 57°39' E 011°23'4 8.0
2017-Nov-18 09:30N 57°35' E 011°24'611.4
2017-Nov-18 09:00N 57°30' E 011°26'612.1
2017-Nov-18 08:30N 57°24' E 011°30'612.2
2017-Nov-18 08:00N 57°18' E 011°33'612.1
2017-Nov-18 07:30N 57°12' E 011°37'6711.2
2017-Nov-18 01:30N 56°11' E 012°25'611.8
2017-Nov-18 01:00N 56°07' E 012°33'611.6
2017-Nov-18 00:30N 56°03' E 012°40'3 4.8
2017-Nov-17 23:59N 56°01' E 012°43'0 0.0
2017-Nov-17 23:29N 56°01' E 012°43'0 0.0
2017-Nov-17 22:59N 56°01' E 012°43'0 0.0
2017-Nov-17 22:26N 56°01' E 012°43'0 0.0
2017-Nov-17 21:56N 56°01' E 012°43'0 0.0
2017-Nov-17 21:29N 56°01' E 012°43'0 0.0
2017-Nov-17 20:59N 56°01' E 012°43'0 0.0
2017-Nov-17 20:29N 56°01' E 012°43'0 0.0
2017-Nov-17 19:59N 56°01' E 012°43'0 0.0
2017-Nov-17 19:29N 56°01' E 012°43'0 0.0
2017-Nov-17 18:59N 56°01' E 012°43'0 0.0
2017-Nov-17 18:29N 56°01' E 012°43'0 0.0
2017-Nov-17 17:59N 56°01' E 012°43'0 0.0
2017-Nov-17 17:29N 56°01' E 012°43'0 0.0
2017-Nov-17 16:59N 56°01' E 012°43'0 0.0
2017-Nov-17 16:29N 56°01' E 012°43'0 0.0
2017-Nov-17 15:59N 56°01' E 012°43'0 0.0
2017-Nov-17 15:29N 56°01' E 012°43'0 0.0
2017-Nov-17 14:59N 56°01' E 012°43'0 0.0
2017-Nov-17 14:29N 56°01' E 012°43'0 0.0
2017-Nov-17 13:59N 56°01' E 012°43'0 0.0
2017-Nov-17 13:29N 56°01' E 012°43'0 0.0
2017-Nov-17 12:59N 56°01' E 012°43'0 0.0
2017-Nov-17 12:29N 56°01' E 012°43'0 0.9
2017-Nov-17 12:00N 56°00' E 012°43'2 4.2
2017-Nov-17 11:29N 55°58' E 012°44'0 0.1
2017-Nov-17 10:59N 55°58' E 012°44'0 0.1
2017-Nov-17 10:29N 55°58' E 012°44'0 0.1
2017-Nov-17 09:59N 55°58' E 012°44'0 0.1
2017-Nov-17 09:29N 55°58' E 012°44'0 0.1
2017-Nov-17 08:59N 55°58' E 012°44'0 0.0
2017-Nov-17 08:29N 55°58' E 012°44'0 0.0
2017-Nov-17 07:59N 55°58' E 012°44'0 0.0
2017-Nov-17 07:29N 55°58' E 012°44'0 0.0
2017-Nov-17 06:59N 55°58' E 012°44'0 0.0
2017-Nov-17 06:29N 55°58' E 012°44'0 0.0
2017-Nov-17 05:59N 55°58' E 012°44'0 0.0
2017-Nov-17 05:29N 55°58' E 012°44'0 0.0
2017-Nov-17 04:59N 55°58' E 012°44'0 0.0
2017-Nov-17 04:29N 55°58' E 012°44'0 0.0
2017-Nov-17 03:59N 55°58' E 012°44'0 0.0
2017-Nov-17 03:29N 55°58' E 012°44'0 0.1
2017-Nov-17 02:59N 55°58' E 012°44'0 0.0
2017-Nov-17 02:29N 55°58' E 012°44'0 0.1
2017-Nov-17 01:59N 55°58' E 012°44'0 0.1
2017-Nov-17 01:29N 55°58' E 012°44'0 0.1
2017-Nov-17 00:59N 55°58' E 012°43'0 0.0
2017-Nov-17 00:29N 55°58' E 012°43'0 0.0
2017-Nov-16 23:59N 55°58' E 012°43'0 0.0
2017-Nov-16 23:29N 55°58' E 012°43'0 0.0
2017-Nov-16 22:59N 55°58' E 012°43'0 0.0
2017-Nov-16 22:29N 55°58' E 012°43'0 0.0
2017-Nov-16 21:59N 55°58' E 012°43'0 0.0
2017-Nov-16 21:29N 55°58' E 012°43'0 0.0
2017-Nov-16 20:59N 55°58' E 012°43'0 0.0
2017-Nov-16 20:29N 55°58' E 012°43'0 0.0
2017-Nov-16 19:59N 55°58' E 012°43'0 0.0
2017-Nov-16 19:29N 55°58' E 012°43'0 0.0
2017-Nov-16 18:59N 55°58' E 012°43'0 0.0
2017-Nov-16 18:29N 55°58' E 012°43'1 1.7
2017-Nov-16 18:01N 55°57' E 012°44'611.0
2017-Nov-16 17:30N 55°52' E 012°44'612.5
2017-Nov-16 17:00N 55°46' E 012°49'612.6
2017-Nov-16 16:31N 55°41' E 012°55'4 8.5
2017-Nov-16 16:01N 55°37' E 012°53'5 9.1
2017-Nov-16 15:30N 55°34' E 012°48'4 8.6
2017-Nov-16 15:01N 55°30' E 012°43'510.7
2017-Nov-16 14:30N 55°25' E 012°41'612.3
2017-Nov-16 14:01N 55°19' E 012°40'611.5
2017-Nov-16 13:31N 55°17' E 012°49'611.8
2017-Nov-16 13:00N 55°14' E 012°59'611.1
2017-Nov-16 12:29N 55°13' E 013°08'2711.7
2017-Nov-16 10:09N 55°13' E 013°56'311.6
2017-Nov-16 09:51N 55°13' E 014°02'411.6
2017-Nov-16 09:28N 55°13' E 014°10'610.4
2017-Nov-16 08:53N 55°15' E 014°20'411.6
2017-Nov-16 08:30N 55°19' E 014°25'611.9
2017-Nov-16 08:00N 55°23' E 014°31'611.6
2017-Nov-16 07:30N 55°27' E 014°39'611.9
2017-Nov-16 07:00N 55°30' E 014°48'611.7
2017-Nov-16 06:27N 55°33' E 014°58'611.8
2017-Nov-16 05:55N 55°36' E 015°08'611.6
2017-Nov-16 05:24N 55°38' E 015°18'511.7
2017-Nov-16 05:01N 55°40' E 015°25'611.8
2017-Nov-16 04:31N 55°41' E 015°36'611.9
2017-Nov-16 04:01N 55°43' E 015°46'611.9
2017-Nov-16 03:31N 55°44' E 015°56'611.8
2017-Nov-16 03:01N 55°45' E 016°06'611.6
2017-Nov-16 02:31N 55°47' E 016°16'611.6
2017-Nov-16 02:01N 55°48' E 016°26'611.6
2017-Nov-16 01:31N 55°50' E 016°36'31310.4
2017-Nov-14 19:29N 59°38' E 023°18'511.5
2017-Nov-14 19:00N 59°39' E 023°28'611.4
2017-Nov-14 18:30N 59°41' E 023°39'611.4
2017-Nov-14 17:59N 59°42' E 023°50'1011.3
2017-Nov-14 17:03N 59°45' E 024°10'111.3
2017-Nov-14 16:56N 59°45' E 024°13'511.2
2017-Nov-14 16:30N 59°47' E 024°22'611.2
2017-Nov-14 16:00N 59°48' E 024°33'611.1
2017-Nov-14 15:30N 59°49' E 024°44'611.1
2017-Nov-14 15:00N 59°50' E 024°54'  

Dump ship's entire track history